Ludlow, Mississippi
Current Conditions -  °F | °C
As of 7:54 PM on Friday 24 Oct 2014 (Local Time) from KJAN Reporting Station
Few Clouds Few Clouds  
Wind Chill: 57°   Ceiling: Unl
Heat Index: 57°   Visibility: 10mi
Dew Point: 48°   Wind: 0mph
Humidity: 72%   Direction: NA
Pressure: 30.11"   Gusts: NA
Location:  32.57°N, 89.72°W
Report Text: KJAN 250054Z 00000KT 10SM FEW250 14/09 A3011 RMK AO2 SLP195 T01390089
Loading
Personal Weather Stations






























Interactive Weather Map
Tropical Storm Tracking
New forecast layout! Learn more

10-Day Weather Forecast

Advertisements
Track Severe Weather on mobile